OIIIOINZ

Guest
Details From OIII - Teheran Mehrabad Intl
To OINZ - SARI DASHT E NAZ
Flight Number -
Tags generated
Created
Modified
Stats Distance 107 nm / 199 km
Max Altitude 0 ft / 0 m
Waypoints 3
Social Downloads 4
Likes 0
Share VATSIM

Download

Looking for another format? Having issues loading an existing format? Contact us
Advertisement - Login to hide

Notes

Basic altitude profile: - Ascent Rate: 2500ft/min - Ascent Speed: 250kts - Cruise Altitude: 35000ft - Cruise Speed: 420kts - Descent Rate: 1500ft/min - Descent Speed: 250kts Options: - Use NATs: yes - Use PACOTS: yes - Use low airways: yes - Use high airways: yes

Route

OIII DNZ OINZ

ID Type Via Altitude Latitude Longitude Leg Dist Tot Dist Heading (true) Name
O OIII APT - 0 ft / 0 m 35.69263˚ 51.31741˚ - 0 nm - Teheran Mehrabad Intl
DNZ VOR - 0 ft / 0 m 36.64456˚ 53.19039˚ 107 nm 107 nm 57° / 58° DASHT-E-NAZ VOR-DME
O OINZ APT - 0 ft / 0 m 36.64460˚ 53.18868˚ 0 nm 107 nm 272° / 272° SARI DASHT E NAZ

Altitude Profile

Advertisement - Login to hide

OIII

Details ICAO OIII (THR)
Name Teheran Mehrabad Intl
Region Iran
Timezone Asia/Tehran (UTC+3.5)
Stats Elevation 3,962 ft / 1,208 m (AMSL)
Location 35.692631° 51.317409°
Runways 3
Magnetic Variation 4.730° E

METAR

OIII 160130Z 32004KT CAVOK 03/M06 Q1021 A3015 NOSIG

Decode

TAF

TAF OIII 151800Z 1518/1624 15004MPS 6000 NSC BECMG 1602/1603 3000 HZ BECMG 1606/1608 6000 FEW030

Decode

Departure Runways

ID Width Length Bearing (true) Bearing (mag) Surface Threshold Offset Overrun Length
09 131 ft / 40 m 1,553 ft / 473 m 88.25° 83.52° Concrete 0 ft / 0 m 160 ft / 49 m
11L 148 ft / 45 m 13,077 ft / 3,986 m 109.70° 104.97° Asphalt 0 ft / 0 m 1,000 ft / 305 m
11R 197 ft / 60 m 13,227 ft / 4,032 m 109.74° 105.01° Asphalt 3,075 ft / 937 m 1,000 ft / 305 m
27 131 ft / 40 m 1,553 ft / 473 m 268.25° 263.52° Concrete 0 ft / 0 m 90 ft / 27 m
29L 197 ft / 60 m 13,227 ft / 4,032 m 289.77° 285.04° Asphalt 0 ft / 0 m 280 ft / 85 m
29R 148 ft / 45 m 13,077 ft / 3,986 m 289.72° 284.99° Asphalt 0 ft / 0 m 400 ft / 122 m

OINZ

Details ICAO OINZ (SRY)
Name SARI DASHT E NAZ
Region Iran
Timezone Asia/Tehran (UTC+3.5)
Stats Elevation 35 ft / 11 m (AMSL)
Location 36.644600° 53.188683°
Runways 1
Magnetic Variation 4.885° E

METAR

OINZ 160100Z 18006KT CAVOK 03/02 Q1022

Decode

TAF

Not found

Destination Runways

ID Width Length Bearing (true) Bearing (mag) Surface Threshold Offset Overrun Length
16 148 ft / 45 m 8,694 ft / 2,650 m 160.89° 156.01° Asphalt 0 ft / 0 m 175 ft / 53 m
34 148 ft / 45 m 8,694 ft / 2,650 m 340.89° 336.01° Asphalt 1,687 ft / 514 m 159 ft / 48 m